Terminal Aerodrome Forecast
Issued by NWS

Home | Current Version | Previous Version | Text Only | Print | Product List | Glossary On
Versions: 1 2 3 4 5 6 7 8 9 10 11 12 13 14 15 16 17 18 19 20 21 22 23 24 25 26
000
FTUS46 KLOX 302000 AAA
TAFLAX
TAF AMD
KLAX 302049Z 3021/3124 27012KT P6SM FEW030 BKN150
     FM310500 VRB03KT P6SM SCT200
     FM311100 VRB03KT 5SM BR BKN008
     FM311600 26007KT P6SM SKC
     FM312000 26012KT P6SM SKC=

USA.gov is the U.S. government's official web portal to all federal, state and local government web resources and services.